createdAt,value
2022-12-18T00:01:23.390Z,61.20
2022-12-18T00:03:50.905Z,64.32
2022-12-18T00:06:18.411Z,63.10
2022-12-18T00:08:45.641Z,58.63
2022-12-18T00:11:19.726Z,65.47
2022-12-18T00:13:46.758Z,60.13
2022-12-18T00:16:16.850Z,59.92
2022-12-18T00:18:43.595Z,60.15
2022-12-18T00:21:12.905Z,62.28
2022-12-18T00:23:41.727Z,59.93
2022-12-18T00:26:13.108Z,60.38
2022-12-18T00:28:39.819Z,60.53
2022-12-18T00:33:39.648Z,55.28
2022-12-18T00:36:15.778Z,59.58
2022-12-18T00:38:43.338Z,61.97
2022-12-18T00:41:10.777Z,55.35
2022-12-18T00:43:39.375Z,54.40
2022-12-18T00:46:06.981Z,61.55
2022-12-18T00:48:33.674Z,55.50
2022-12-18T00:51:00.377Z,59.17
2022-12-18T00:53:26.995Z,57.17
2022-12-18T00:55:53.617Z,55.70
2022-12-18T00:58:20.283Z,55.72
2022-12-18T01:00:47.005Z,50.40
2022-12-18T01:03:14.932Z,59.13
2022-12-18T01:05:44.239Z,54.00
2022-12-18T01:10:41.424Z,56.80
2022-12-18T01:13:08.214Z,56.60
2022-12-18T01:15:34.847Z,57.33
2022-12-18T01:18:01.561Z,57.47
2022-12-18T01:20:28.292Z,58.87
2022-12-18T01:22:54.891Z,51.53
2022-12-18T01:25:21.570Z,52.50
2022-12-18T01:27:50.733Z,50.37
2022-12-18T01:30:17.456Z,48.50
2022-12-18T01:32:45.605Z,54.07
2022-12-18T01:35:12.215Z,48.43
2022-12-18T01:37:38.835Z,53.03
2022-12-18T01:40:06.217Z,52.17
2022-12-18T01:42:32.812Z,53.00
2022-12-18T01:45:17.490Z,53.87
2022-12-18T01:47:47.905Z,52.40
2022-12-18T01:50:17.197Z,50.50
2022-12-18T01:52:45.897Z,50.07
2022-12-18T01:55:14.081Z,47.53
2022-12-18T01:57:42.335Z,54.87
2022-12-18T02:00:16.455Z,49.77
2022-12-18T02:02:45.255Z,49.43
2022-12-18T02:05:16.374Z,45.27
2022-12-18T02:08:17.234Z,49.87
2022-12-18T02:11:15.591Z,46.13
2022-12-18T02:13:45.287Z,50.10
2022-12-18T02:16:19.848Z,49.90
2022-12-18T02:18:50.252Z,46.33
2022-12-18T02:21:42.961Z,43.77
2022-12-18T02:24:23.382Z,45.23
2022-12-18T02:27:11.807Z,45.20
2022-12-18T02:29:45.510Z,47.47
2022-12-18T02:32:18.783Z,49.00
2022-12-18T02:34:47.251Z,41.83
2022-12-18T02:37:19.531Z,42.33
2022-12-18T02:39:50.585Z,48.70
2022-12-18T02:42:18.758Z,41.37
2022-12-18T02:44:47.413Z,44.43
2022-12-18T02:47:21.160Z,43.40
2022-12-18T02:49:56.832Z,48.03
2022-12-18T02:52:32.811Z,40.50
2022-12-18T02:55:08.391Z,39.87
2022-12-18T02:57:41.826Z,40.70
2022-12-18T03:00:40.458Z,40.10
2022-12-18T03:03:43.073Z,40.03
2022-12-18T03:06:24.824Z,39.43
2022-12-18T03:08:57.624Z,35.07
2022-12-18T03:11:48.029Z,39.07
2022-12-18T03:14:17.597Z,43.27
2022-12-18T03:16:50.614Z,38.43
2022-12-18T03:19:22.566Z,41.00
2022-12-18T03:21:56.039Z,40.20
2022-12-18T03:24:28.981Z,36.70
2022-12-18T03:27:02.055Z,38.10
2022-12-18T03:29:35.487Z,41.17
2022-12-18T03:32:34.017Z,36.07
2022-12-18T03:35:05.557Z,37.47
2022-12-18T03:37:36.125Z,44.67
2022-12-18T03:40:05.426Z,39.38
2022-12-18T03:43:00.431Z,35.60
2022-12-18T03:45:38.277Z,39.50
2022-12-18T03:48:15.539Z,39.13
2022-12-18T03:51:03.052Z,38.80
2022-12-18T03:54:00.394Z,41.05
2022-12-18T03:56:37.469Z,44.43
2022-12-18T03:59:06.899Z,43.13
2022-12-18T04:01:38.391Z,44.43
2022-12-18T04:04:06.537Z,43.17
2022-12-18T04:06:37.858Z,38.10
2022-12-18T04:09:05.928Z,44.17
2022-12-18T04:11:36.681Z,45.50
2022-12-18T04:14:07.302Z,43.13
2022-12-18T04:16:34.882Z,39.33
2022-12-18T04:19:04.705Z,40.50
2022-12-18T04:21:37.938Z,40.27
2022-12-18T04:24:05.231Z,41.22
2022-12-18T04:26:33.624Z,41.40
2022-12-18T04:29:10.961Z,39.05
2022-12-18T04:31:37.806Z,37.87
2022-12-18T04:34:05.541Z,38.72
2022-12-18T04:36:38.302Z,43.07
2022-12-18T04:39:05.205Z,39.80
2022-12-18T04:41:32.358Z,38.67
2022-12-18T04:44:01.348Z,39.17
2022-12-18T04:46:28.229Z,46.03
2022-12-18T04:48:54.963Z,36.75
2022-12-18T04:51:26.311Z,43.17
2022-12-18T04:53:53.337Z,43.30
2022-12-18T04:56:20.064Z,35.87
2022-12-18T04:58:46.699Z,36.53
2022-12-18T05:01:15.993Z,43.37
2022-12-18T05:03:43.602Z,39.97
2022-12-18T05:06:11.001Z,35.80
2022-12-18T05:08:37.829Z,39.78
2022-12-18T05:11:07.668Z,37.20
2022-12-18T05:13:35.822Z,42.83
2022-12-18T05:16:03.568Z,39.00
2022-12-18T05:18:30.387Z,39.83
2022-12-18T05:20:57.252Z,48.17
2022-12-18T05:23:25.349Z,42.50
2022-12-18T05:25:59.694Z,42.63
2022-12-18T05:28:28.402Z,35.30
2022-12-18T05:30:57.933Z,34.40
2022-12-18T05:33:27.269Z,35.90
2022-12-18T05:35:56.209Z,38.27
2022-12-18T05:38:24.697Z,33.47
2022-12-18T05:40:52.638Z,34.87
2022-12-18T05:43:21.589Z,35.63
2022-12-18T05:45:49.341Z,31.13
2022-12-18T05:48:17.287Z,32.10
2022-12-18T05:50:48.143Z,31.10
2022-12-18T05:53:16.918Z,34.63
2022-12-18T05:55:44.920Z,31.40
2022-12-18T05:58:13.185Z,30.53
2022-12-18T06:00:43.563Z,29.77
2022-12-18T06:03:11.926Z,32.90
2022-12-18T06:05:41.240Z,30.43
2022-12-18T06:08:08.614Z,29.97
2022-12-18T06:10:35.424Z,28.70
2022-12-18T06:13:02.255Z,28.90
2022-12-18T06:15:29.155Z,36.03
2022-12-18T06:17:55.790Z,30.77
2022-12-18T06:20:22.641Z,27.50
2022-12-18T06:22:49.271Z,27.10
2022-12-18T06:25:16.771Z,29.17
2022-12-18T06:27:43.597Z,29.63
2022-12-18T06:30:11.381Z,24.92
2022-12-18T06:32:38.230Z,25.27
2022-12-18T06:35:05.303Z,27.93
2022-12-18T06:37:32.747Z,27.05
2022-12-18T06:39:59.430Z,28.77
2022-12-18T06:42:26.344Z,27.60
2022-12-18T06:44:53.163Z,28.35
2022-12-18T06:47:19.867Z,25.42
2022-12-18T06:49:46.609Z,21.77
2022-12-18T06:52:13.195Z,25.43
2022-12-18T06:54:39.809Z,24.57
2022-12-18T06:57:06.728Z,26.93
2022-12-18T06:59:33.397Z,26.80
2022-12-18T07:02:00.150Z,24.77
2022-12-18T07:06:58.463Z,23.57
2022-12-18T07:09:25.581Z,31.70
2022-12-18T07:11:53.495Z,22.20
2022-12-18T07:14:20.270Z,31.63
2022-12-18T07:16:47.844Z,28.25
2022-12-18T07:19:14.634Z,30.17
2022-12-18T07:21:41.257Z,25.83
2022-12-18T07:24:08.242Z,27.33
2022-12-18T07:26:34.899Z,29.20
2022-12-18T07:29:01.517Z,28.10
2022-12-18T07:31:28.572Z,27.43
2022-12-18T07:33:56.250Z,28.05
2022-12-18T07:36:22.898Z,26.45
2022-12-18T07:38:50.445Z,29.13
2022-12-18T07:41:17.345Z,25.83
2022-12-18T07:43:44.547Z,26.48
2022-12-18T07:46:14.673Z,28.73
2022-12-18T07:48:42.942Z,24.70
2022-12-18T07:51:10.966Z,26.47
2022-12-18T07:53:38.037Z,27.53
2022-12-18T07:58:55.096Z,26.40
2022-12-18T08:01:21.941Z,25.77
2022-12-18T08:03:48.738Z,25.23
2022-12-18T08:06:16.821Z,28.60
2022-12-18T08:08:43.520Z,29.87
2022-12-18T08:11:10.172Z,28.37
2022-12-18T08:13:37.212Z,30.47
2022-12-18T08:16:07.322Z,32.55
2022-12-18T08:18:35.232Z,29.80
2022-12-18T08:21:12.885Z,34.07
2022-12-18T08:26:11.666Z,36.00
2022-12-18T08:28:38.717Z,36.33
2022-12-18T08:31:05.893Z,37.47
2022-12-18T08:33:33.469Z,35.38
2022-12-18T08:36:00.977Z,38.90
2022-12-18T08:38:27.918Z,32.63
2022-12-18T08:41:06.371Z,33.45
2022-12-18T08:43:51.597Z,35.30
2022-12-18T08:46:19.700Z,37.70
2022-12-18T08:48:46.854Z,38.03
2022-12-18T08:51:14.138Z,40.50
2022-12-18T08:53:41.149Z,35.78
2022-12-18T08:56:08.711Z,24.23
2022-12-18T08:58:35.394Z,29.50
2022-12-18T09:01:04.380Z,30.52
2022-12-18T09:03:32.505Z,27.13
2022-12-18T09:05:59.256Z,27.20
2022-12-18T09:08:26.313Z,33.50
2022-12-18T09:10:53.213Z,31.95
2022-12-18T09:13:20.378Z,27.48
2022-12-18T09:15:55.348Z,27.50
2022-12-18T09:18:24.593Z,27.17
2022-12-18T09:20:54.200Z,30.98
2022-12-18T09:23:21.722Z,32.22
2022-12-18T09:25:48.815Z,34.08
2022-12-18T09:28:18.657Z,30.40
2022-12-18T09:30:48.332Z,33.72
2022-12-18T09:33:15.379Z,28.13
2022-12-18T09:35:44.853Z,32.55
2022-12-18T09:38:17.531Z,29.90
2022-12-18T09:40:48.354Z,27.70
2022-12-18T09:43:23.306Z,27.60
2022-12-18T09:45:54.686Z,25.27
2022-12-18T09:48:33.186Z,27.08
2022-12-18T09:51:05.035Z,28.08
2022-12-18T09:53:36.177Z,30.60
2022-12-18T09:56:05.628Z,29.30
2022-12-18T09:58:46.718Z,30.52
2022-12-18T10:01:17.522Z,27.25
2022-12-18T10:03:45.758Z,26.48
2022-12-18T10:06:19.471Z,31.58
2022-12-18T10:09:09.367Z,30.13
2022-12-18T10:11:41.807Z,32.03
2022-12-18T10:14:32.484Z,28.38
2022-12-18T10:17:24.047Z,27.63
2022-12-18T10:20:03.119Z,27.88
2022-12-18T10:22:37.447Z,26.85
2022-12-18T10:25:20.527Z,30.80
2022-12-18T10:27:47.669Z,26.38
2022-12-18T10:30:16.926Z,29.25
2022-12-18T10:32:43.979Z,27.75
2022-12-18T10:35:30.917Z,27.88
2022-12-18T10:38:12.683Z,28.83
2022-12-18T10:40:59.629Z,27.98
2022-12-18T10:43:31.701Z,29.13
2022-12-18T10:46:09.618Z,27.55
2022-12-18T10:48:48.354Z,24.45
2022-12-18T10:51:35.418Z,25.10
2022-12-18T10:54:07.757Z,22.63
2022-12-18T10:56:37.224Z,23.10
2022-12-18T10:59:09.144Z,25.05
2022-12-18T11:01:58.085Z,24.85
2022-12-18T11:04:27.295Z,23.02
2022-12-18T11:07:14.233Z,23.15
2022-12-18T11:09:41.355Z,26.60
2022-12-18T11:12:21.050Z,34.15
2022-12-18T11:14:53.408Z,28.63
2022-12-18T11:17:26.255Z,25.50
2022-12-18T11:19:55.633Z,28.63
2022-12-18T11:22:31.680Z,28.90
2022-12-18T11:28:27.244Z,21.95
2022-12-18T11:31:32.206Z,22.65
2022-12-18T11:36:50.562Z,29.40
2022-12-18T11:39:24.721Z,31.05
2022-12-18T11:42:10.195Z,32.92
2022-12-18T11:44:51.448Z,30.52
2022-12-18T11:47:40.211Z,53.63
2022-12-18T11:50:15.676Z,65.32
2022-12-18T11:52:43.412Z,29.70
2022-12-18T11:55:33.021Z,24.87
2022-12-18T11:58:11.225Z,26.13
2022-12-18T12:00:51.859Z,29.75
2022-12-18T12:03:37.701Z,23.73
2022-12-18T12:06:25.932Z,24.30
2022-12-18T12:08:58.407Z,24.70
2022-12-18T12:11:46.543Z,24.73
2022-12-18T12:14:47.205Z,25.23
2022-12-18T12:17:43.130Z,24.60
2022-12-18T12:20:26.640Z,25.90
2022-12-18T12:23:04.124Z,20.98
2022-12-18T12:25:54.921Z,26.73
2022-12-18T12:28:56.861Z,22.65
2022-12-18T12:31:23.446Z,20.73
2022-12-18T12:34:09.820Z,30.73
2022-12-18T12:37:00.941Z,25.63
2022-12-18T12:39:36.406Z,23.98
2022-12-18T12:42:32.794Z,23.98
2022-12-18T12:45:02.660Z,27.75
2022-12-18T12:47:38.555Z,29.30
2022-12-18T12:50:13.492Z,28.55
2022-12-18T12:52:59.043Z,27.38
2022-12-18T12:55:29.041Z,27.27
2022-12-18T12:58:03.363Z,29.35
2022-12-18T13:00:40.892Z,32.35
2022-12-18T13:03:07.880Z,32.63
2022-12-18T13:05:55.749Z,29.60
2022-12-18T13:08:35.708Z,28.02
2022-12-18T13:11:22.221Z,32.63
2022-12-18T13:13:57.359Z,28.83
2022-12-18T13:16:28.216Z,33.58
2022-12-18T13:19:00.422Z,39.20
2022-12-18T13:21:30.801Z,28.80
2022-12-18T13:24:15.095Z,28.42
2022-12-18T13:26:41.957Z,31.67
2022-12-18T13:29:09.046Z,33.38
2022-12-18T13:31:41.991Z,28.48
2022-12-18T13:34:26.980Z,27.52
2022-12-18T13:36:57.030Z,32.22
2022-12-18T13:39:34.822Z,30.13
2022-12-18T13:42:08.604Z,28.60
2022-12-18T13:44:42.441Z,33.00
2022-12-18T13:47:36.176Z,26.85
2022-12-18T13:50:11.707Z,32.55
2022-12-18T13:52:40.541Z,35.75
2022-12-18T13:55:17.232Z,33.30
2022-12-18T13:57:43.869Z,29.70
2022-12-18T14:00:19.647Z,35.92
2022-12-18T14:02:47.494Z,37.13
2022-12-18T14:05:37.155Z,32.65
2022-12-18T14:08:17.128Z,30.23
2022-12-18T14:10:49.779Z,33.83
2022-12-18T14:13:31.807Z,37.17
2022-12-18T14:16:01.753Z,29.98
2022-12-18T14:18:56.878Z,30.38
2022-12-18T14:21:30.659Z,32.63
2022-12-18T14:24:15.528Z,32.80
2022-12-18T14:26:45.989Z,36.25
2022-12-18T14:29:43.929Z,35.00
2022-12-18T14:32:18.727Z,36.25
2022-12-18T14:34:51.681Z,33.72
2022-12-18T14:37:23.023Z,31.67
2022-12-18T14:39:57.618Z,31.98
2022-12-18T14:42:28.818Z,39.08
2022-12-18T14:45:41.846Z,33.60
2022-12-18T14:48:23.498Z,32.35
2022-12-18T14:50:58.309Z,29.05
2022-12-18T14:53:36.463Z,35.40
2022-12-18T14:56:13.754Z,36.63
2022-12-18T14:58:44.738Z,29.40
2022-12-18T15:01:41.781Z,30.02
2022-12-18T15:04:30.010Z,28.77
2022-12-18T15:07:11.796Z,29.25
2022-12-18T15:09:40.631Z,35.17
2022-12-18T15:12:25.696Z,27.92
2022-12-18T15:14:52.362Z,32.85
2022-12-18T15:17:24.125Z,32.28
2022-12-18T15:19:59.548Z,30.65
2022-12-18T15:22:29.640Z,29.77
2022-12-18T15:24:57.849Z,36.35
2022-12-18T15:27:27.421Z,31.08
2022-12-18T15:30:01.762Z,31.17
2022-12-18T15:32:28.438Z,34.05
2022-12-18T15:35:25.816Z,31.98
2022-12-18T15:40:24.845Z,43.08
2022-12-18T15:43:13.220Z,42.60
2022-12-18T15:45:40.087Z,44.13
2022-12-18T15:48:24.389Z,49.63
2022-12-18T15:50:53.579Z,47.85
2022-12-18T15:53:20.466Z,36.60
2022-12-18T15:56:05.761Z,48.97
2022-12-18T15:58:33.969Z,60.95
2022-12-18T16:01:02.541Z,71.88
2022-12-18T16:03:29.397Z,41.97
2022-12-18T16:05:56.075Z,40.17
2022-12-18T16:08:23.721Z,38.30
2022-12-18T16:10:50.352Z,40.83
2022-12-18T16:13:21.153Z,40.78
2022-12-18T16:15:48.475Z,35.45
2022-12-18T16:18:15.281Z,45.17
2022-12-18T16:20:42.100Z,44.63
2022-12-18T16:23:09.114Z,48.20
2022-12-18T16:25:35.802Z,46.40
2022-12-18T16:28:02.472Z,44.53
2022-12-18T16:30:35.756Z,46.80
2022-12-18T16:33:07.469Z,44.92
2022-12-18T16:35:35.281Z,39.65
2022-12-18T16:38:01.891Z,40.38
2022-12-18T16:40:28.708Z,39.58
2022-12-18T16:42:55.407Z,41.88
2022-12-18T16:45:22.107Z,43.67
2022-12-18T16:47:50.262Z,45.92
2022-12-18T16:50:16.868Z,46.53
2022-12-18T16:52:43.983Z,81.22
2022-12-18T16:55:10.791Z,49.20
2022-12-18T16:57:37.457Z,38.40
2022-12-18T17:00:06.040Z,38.42
2022-12-18T17:02:33.590Z,36.78
2022-12-18T17:05:00.596Z,38.83
2022-12-18T17:07:28.381Z,36.55
2022-12-18T17:12:22.849Z,38.90
2022-12-18T17:14:49.750Z,39.75
2022-12-18T17:17:21.940Z,37.78
2022-12-18T17:19:50.894Z,33.42
2022-12-18T17:24:44.181Z,37.80
2022-12-18T17:27:10.824Z,41.92
2022-12-18T17:29:40.140Z,36.60
2022-12-18T17:32:12.386Z,34.00
2022-12-18T17:34:40.779Z,33.55
2022-12-18T17:37:08.020Z,36.73
2022-12-18T17:39:34.743Z,38.50
2022-12-18T17:42:01.468Z,37.13
2022-12-18T17:44:28.152Z,35.35
2022-12-18T17:46:55.029Z,33.22
2022-12-18T17:49:22.081Z,29.27
2022-12-18T17:51:49.049Z,32.15
2022-12-18T17:54:15.812Z,31.97
2022-12-18T17:56:42.887Z,32.97
2022-12-18T17:59:10.856Z,28.10
2022-12-18T18:01:43.674Z,31.40
2022-12-18T18:04:11.836Z,33.10
2022-12-18T18:06:39.355Z,30.92
2022-12-18T18:09:15.653Z,33.80
2022-12-18T18:12:02.509Z,34.97
2022-12-18T18:14:29.611Z,31.45
2022-12-18T18:16:56.342Z,33.83
2022-12-18T18:19:27.429Z,32.05
2022-12-18T18:21:54.631Z,27.25
2022-12-18T18:24:23.632Z,34.35
2022-12-18T18:26:50.539Z,36.33
2022-12-18T18:29:20.813Z,27.00
2022-12-18T18:31:48.424Z,39.40
2022-12-18T18:34:21.620Z,37.25
2022-12-18T18:36:48.474Z,31.20
2022-12-18T18:39:15.460Z,38.88
2022-12-18T18:41:47.686Z,35.03
2022-12-18T18:44:15.769Z,43.03
2022-12-18T18:46:42.553Z,39.80
2022-12-18T18:49:09.733Z,36.25
2022-12-18T18:51:36.392Z,39.42
2022-12-18T18:54:03.113Z,36.40
2022-12-18T18:59:17.048Z,38.25
2022-12-18T19:01:44.242Z,40.88
2022-12-18T19:04:11.084Z,36.13
2022-12-18T19:06:37.885Z,41.00
2022-12-18T19:09:06.664Z,39.38
2022-12-18T19:11:52.189Z,38.20
2022-12-18T19:14:19.308Z,31.55
2022-12-18T19:16:45.997Z,36.70
2022-12-18T19:19:13.477Z,42.27
2022-12-18T19:21:40.471Z,38.22
2022-12-18T19:24:07.515Z,33.55
2022-12-18T19:26:35.993Z,35.95
2022-12-18T19:29:07.772Z,38.05
2022-12-18T19:31:36.319Z,34.60
2022-12-18T19:34:05.279Z,41.95
2022-12-18T19:36:33.500Z,35.58
2022-12-18T19:39:01.891Z,38.42
2022-12-18T19:41:31.088Z,38.17
2022-12-18T19:43:58.524Z,32.28
2022-12-18T19:46:25.280Z,36.65
2022-12-18T19:48:52.119Z,40.58
2022-12-18T19:51:22.497Z,39.03
2022-12-18T19:53:53.664Z,40.63
2022-12-18T19:56:25.797Z,32.45
2022-12-18T19:58:53.477Z,38.75
2022-12-18T20:01:22.747Z,36.63
2022-12-18T20:03:51.739Z,29.30
2022-12-18T20:06:30.830Z,37.15
2022-12-18T20:09:01.199Z,34.78
2022-12-18T20:11:32.753Z,38.92
2022-12-18T20:14:03.360Z,43.03
2022-12-18T20:16:30.841Z,34.97
2022-12-18T20:21:25.347Z,46.20
2022-12-18T20:23:52.575Z,47.22
2022-12-18T20:26:19.397Z,38.15
2022-12-18T20:28:46.362Z,40.15
2022-12-18T20:31:14.186Z,42.08
2022-12-18T20:33:42.228Z,39.90
2022-12-18T20:36:14.313Z,36.55
2022-12-18T20:38:42.584Z,39.75
2022-12-18T20:41:17.270Z,41.33
2022-12-18T20:43:44.726Z,41.45
2022-12-18T20:46:13.962Z,42.40
2022-12-18T20:48:41.574Z,42.75
2022-12-18T20:51:11.572Z,41.10
2022-12-18T20:53:42.132Z,38.28
2022-12-18T20:56:11.490Z,39.15
2022-12-18T20:58:38.268Z,36.90
2022-12-18T21:01:11.226Z,37.75
2022-12-18T21:03:40.109Z,39.22
2022-12-18T21:06:08.200Z,41.33
2022-12-18T21:08:35.007Z,30.67
2022-12-18T21:11:50.004Z,30.00
2022-12-18T21:14:23.527Z,39.55
2022-12-18T21:16:50.998Z,40.13
2022-12-18T21:19:20.319Z,45.00
2022-12-18T21:21:47.366Z,38.85
2022-12-18T21:24:15.744Z,35.80
2022-12-18T21:26:45.751Z,37.70
2022-12-18T21:29:24.585Z,44.40
2022-12-18T21:31:53.720Z,37.58
2022-12-18T21:34:26.578Z,38.22
2022-12-18T21:36:54.887Z,35.70
2022-12-18T21:39:22.536Z,36.58
2022-12-18T21:44:36.283Z,68.72
2022-12-18T21:47:20.120Z,39.38
2022-12-18T21:49:51.287Z,41.65
2022-12-18T21:52:18.041Z,42.72
2022-12-18T21:54:44.665Z,42.05
2022-12-18T21:57:13.768Z,42.03
2022-12-18T21:59:43.317Z,38.05
2022-12-18T22:02:16.491Z,39.78
2022-12-18T22:04:44.160Z,40.33
2022-12-18T22:07:12.115Z,36.13
2022-12-18T22:09:39.000Z,34.47
2022-12-18T22:12:06.281Z,38.43
2022-12-18T22:14:32.925Z,39.78
2022-12-18T22:16:59.647Z,32.67
2022-12-18T22:19:26.690Z,35.22
2022-12-18T22:21:54.339Z,36.47
2022-12-18T22:24:26.254Z,42.05
2022-12-18T22:27:01.598Z,36.17
2022-12-18T22:29:47.777Z,34.08
2022-12-18T22:32:17.061Z,36.20
2022-12-18T22:35:01.725Z,36.78
2022-12-18T22:37:31.816Z,41.17
2022-12-18T22:39:58.420Z,41.13
2022-12-18T22:42:25.552Z,35.30
2022-12-18T22:44:52.182Z,36.75
2022-12-18T22:47:18.883Z,44.78
2022-12-18T22:49:45.507Z,45.72
2022-12-18T22:52:12.206Z,36.70
2022-12-18T22:54:40.009Z,29.55
2022-12-18T22:57:06.636Z,38.38
2022-12-18T22:59:33.990Z,42.25
2022-12-18T23:02:00.652Z,49.50
2022-12-18T23:04:32.960Z,39.95
2022-12-18T23:07:06.170Z,35.38
2022-12-18T23:09:33.672Z,30.42
2022-12-18T23:12:01.158Z,39.60
2022-12-18T23:14:28.624Z,47.67
2022-12-18T23:16:56.393Z,41.13
2022-12-18T23:19:23.508Z,41.72
2022-12-18T23:21:51.163Z,39.83
2022-12-18T23:24:17.879Z,33.67
2022-12-18T23:26:44.526Z,43.55
2022-12-18T23:29:11.225Z,37.13
2022-12-18T23:31:39.713Z,34.85
2022-12-18T23:34:08.145Z,44.00
2022-12-18T23:36:45.246Z,34.58
2022-12-18T23:39:24.361Z,39.08
2022-12-18T23:41:58.053Z,35.83
2022-12-18T23:44:25.137Z,27.77
2022-12-18T23:46:51.889Z,37.70
2022-12-18T23:49:18.629Z,32.75
2022-12-18T23:51:45.341Z,34.65
2022-12-18T23:54:12.031Z,34.28
2022-12-18T23:56:38.729Z,33.35
2022-12-18T23:59:05.512Z,40.42
